Terminal Aerodrome Forecast
Issued by NWS

Home | Current Version | Previous Version | Text Only | Print | Product List | Glossary On
Versions: 1 2 3 4 5 6 7 8 9 10 11 12 13 14 15 16 17
000
FTUS44 KTSA 191400 AAB
TAFMLC
TAF AMD
KMLC 191431Z 1915/2012 VRB03KT 6SM BR BKN007 OVC015
      TEMPO 1915/1916 5SM BR SCT007
     FM191600 15005KT P6SM BKN025
     FM192000 14003KT P6SM SKC=

USA.gov is the U.S. government's official web portal to all federal, state and local government web resources and services.